createdAt,value
2022-12-07T00:00:13.859Z,99.80
2022-12-07T00:02:47.697Z,99.81
2022-12-07T00:05:20.540Z,99.64
2022-12-07T00:07:53.401Z,99.44
2022-12-07T00:10:26.238Z,100.00
2022-12-07T00:13:00.424Z,100.00
2022-12-07T00:15:36.562Z,99.55
2022-12-07T00:18:09.370Z,99.58
2022-12-07T00:20:42.142Z,99.98
2022-12-07T00:23:14.989Z,99.43
2022-12-07T00:25:50.150Z,99.51
2022-12-07T00:28:24.668Z,99.70
2022-12-07T00:31:02.413Z,99.89
2022-12-07T00:33:36.256Z,99.21
2022-12-07T00:36:11.719Z,99.61
2022-12-07T00:38:44.940Z,99.61
2022-12-07T00:41:20.233Z,99.73
2022-12-07T00:43:55.063Z,99.60
2022-12-07T00:46:28.517Z,99.84
2022-12-07T00:49:01.498Z,100.00
2022-12-07T00:51:34.371Z,99.89
2022-12-07T00:54:07.139Z,99.78
2022-12-07T00:56:39.959Z,100.00
2022-12-07T00:59:15.861Z,100.00
2022-12-07T01:01:48.715Z,100.00
2022-12-07T01:04:21.575Z,100.00
2022-12-07T01:06:54.375Z,100.00
2022-12-07T01:09:27.183Z,100.00
2022-12-07T01:12:00.077Z,100.00
2022-12-07T01:14:34.272Z,100.00
2022-12-07T01:17:07.107Z,100.00
2022-12-07T01:19:40.038Z,100.00
2022-12-07T01:22:12.819Z,100.00
2022-12-07T01:24:47.617Z,100.00
2022-12-07T01:27:22.243Z,100.00
2022-12-07T01:29:56.541Z,100.00
2022-12-07T01:32:29.660Z,100.00
2022-12-07T01:35:02.379Z,100.00
2022-12-07T01:37:37.539Z,100.00
2022-12-07T01:40:12.637Z,100.00
2022-12-07T01:42:45.518Z,100.00
2022-12-07T01:45:41.650Z,99.92
2022-12-07T01:48:17.991Z,100.00
2022-12-07T01:50:53.762Z,100.00
2022-12-07T01:53:30.537Z,100.00
2022-12-07T01:56:03.631Z,100.00
2022-12-07T01:58:36.990Z,100.00
2022-12-07T02:01:11.244Z,100.00
2022-12-07T02:03:46.705Z,100.00
2022-12-07T02:06:23.543Z,100.00
2022-12-07T02:08:56.511Z,100.00
2022-12-07T02:11:29.352Z,100.00
2022-12-07T02:14:02.475Z,100.00
2022-12-07T02:16:48.265Z,100.00
2022-12-07T02:19:52.948Z,100.00
2022-12-07T02:22:51.416Z,100.00
2022-12-07T02:25:35.574Z,100.00
2022-12-07T02:28:14.001Z,100.00
2022-12-07T02:30:50.656Z,100.00
2022-12-07T02:33:30.689Z,100.00
2022-12-07T02:36:09.526Z,100.00
2022-12-07T02:38:49.751Z,100.00
2022-12-07T02:41:29.601Z,100.00
2022-12-07T02:44:05.732Z,100.00
2022-12-07T02:46:43.711Z,100.00
2022-12-07T02:49:17.172Z,100.00
2022-12-07T02:51:50.005Z,100.00
2022-12-07T02:54:24.174Z,100.00
2022-12-07T02:57:04.016Z,100.00
2022-12-07T02:59:48.769Z,100.00
2022-12-07T03:02:31.498Z,100.00
2022-12-07T03:05:19.900Z,100.00
2022-12-07T03:08:01.781Z,100.00
2022-12-07T03:10:42.151Z,100.00
2022-12-07T03:13:27.426Z,100.00
2022-12-07T03:16:07.210Z,100.00
2022-12-07T03:18:46.524Z,100.00
2022-12-07T03:21:22.094Z,100.00
2022-12-07T03:23:58.640Z,100.00
2022-12-07T03:26:37.798Z,100.00
2022-12-07T03:29:15.466Z,100.00
2022-12-07T03:31:52.531Z,100.00
2022-12-07T03:34:34.803Z,100.00
2022-12-07T03:37:13.000Z,100.00
2022-12-07T03:39:54.010Z,100.00
2022-12-07T03:42:27.380Z,100.00
2022-12-07T03:45:00.991Z,100.00
2022-12-07T03:47:37.334Z,100.00
2022-12-07T03:50:17.621Z,100.00
2022-12-07T03:52:56.599Z,100.00
2022-12-07T03:55:33.425Z,100.00
2022-12-07T03:58:11.184Z,100.00
2022-12-07T04:00:45.104Z,100.00
2022-12-07T04:03:18.423Z,100.00
2022-12-07T04:05:53.010Z,100.00
2022-12-07T04:08:25.986Z,100.00
2022-12-07T04:10:59.112Z,100.00
2022-12-07T04:13:51.918Z,100.00
2022-12-07T04:16:24.799Z,100.00
2022-12-07T04:18:57.726Z,100.00
2022-12-07T04:21:31.925Z,100.00
2022-12-07T04:24:05.552Z,100.00
2022-12-07T04:26:38.321Z,100.00
2022-12-07T04:29:11.687Z,100.00
2022-12-07T04:31:45.164Z,100.00
2022-12-07T04:34:19.237Z,100.00
2022-12-07T04:36:53.349Z,100.00
2022-12-07T04:39:27.784Z,100.00
2022-12-07T04:42:01.527Z,100.00
2022-12-07T04:44:46.543Z,100.00
2022-12-07T04:47:37.851Z,100.00
2022-12-07T04:50:29.504Z,100.00
2022-12-07T04:53:04.701Z,100.00
2022-12-07T04:55:38.131Z,100.00
2022-12-07T04:58:10.972Z,100.00
2022-12-07T05:00:43.805Z,100.00
2022-12-07T05:03:16.594Z,100.00
2022-12-07T05:05:49.379Z,100.00
2022-12-07T05:08:23.675Z,100.00
2022-12-07T05:10:56.791Z,100.00
2022-12-07T05:13:29.638Z,100.00
2022-12-07T05:16:04.554Z,100.00
2022-12-07T05:18:37.337Z,100.00
2022-12-07T05:21:10.227Z,100.00
2022-12-07T05:23:44.494Z,100.00
2022-12-07T05:26:17.243Z,100.00
2022-12-07T05:28:53.015Z,100.00
2022-12-07T05:31:27.857Z,100.00
2022-12-07T05:34:00.669Z,100.00
2022-12-07T05:36:33.464Z,100.00
2022-12-07T05:39:08.134Z,100.00
2022-12-07T05:41:58.499Z,100.00
2022-12-07T05:44:31.497Z,100.00
2022-12-07T05:47:05.110Z,100.00
2022-12-07T05:49:38.045Z,100.00
2022-12-07T05:52:10.895Z,100.00
2022-12-07T05:54:45.177Z,100.00
2022-12-07T05:57:18.127Z,100.00
2022-12-07T05:59:49.998Z,100.00
2022-12-07T06:02:22.880Z,100.00
2022-12-07T06:04:56.362Z,100.00
2022-12-07T06:07:29.155Z,100.00
2022-12-07T06:10:03.475Z,100.00
2022-12-07T06:12:35.584Z,100.00
2022-12-07T06:15:27.053Z,100.00
2022-12-07T06:18:02.083Z,100.00
2022-12-07T06:20:34.916Z,100.00
2022-12-07T06:23:07.734Z,100.00
2022-12-07T06:25:41.847Z,100.00
2022-12-07T06:28:14.906Z,100.00
2022-12-07T06:30:47.669Z,100.00
2022-12-07T06:33:20.466Z,100.00
2022-12-07T06:35:53.250Z,100.00
2022-12-07T06:38:26.000Z,100.00
2022-12-07T06:41:00.128Z,100.00
2022-12-07T06:43:32.996Z,100.00
2022-12-07T06:46:06.284Z,100.00
2022-12-07T06:48:39.261Z,100.00
2022-12-07T06:51:12.165Z,100.00
2022-12-07T06:53:44.978Z,100.00
2022-12-07T06:56:19.139Z,100.00
2022-12-07T06:58:52.081Z,100.00
2022-12-07T07:01:25.188Z,100.00
2022-12-07T07:03:58.021Z,100.00
2022-12-07T07:06:30.966Z,100.00
2022-12-07T07:09:04.161Z,100.00
2022-12-07T07:11:38.362Z,100.00
2022-12-07T07:14:11.187Z,100.00
2022-12-07T07:16:44.075Z,100.00
2022-12-07T07:19:16.951Z,100.00
2022-12-07T07:21:49.785Z,100.00
2022-12-07T07:24:22.810Z,100.00
2022-12-07T07:26:56.970Z,100.00
2022-12-07T07:29:29.750Z,100.00
2022-12-07T07:32:06.739Z,100.00
2022-12-07T07:34:39.811Z,100.00
2022-12-07T07:37:18.699Z,100.00
2022-12-07T07:39:54.490Z,100.00
2022-12-07T07:42:28.588Z,100.00
2022-12-07T07:45:01.353Z,100.00
2022-12-07T07:47:34.346Z,100.00
2022-12-07T07:50:08.618Z,100.00
2022-12-07T07:52:41.818Z,100.00
2022-12-07T07:55:14.984Z,100.00
2022-12-07T07:57:54.430Z,100.00
2022-12-07T08:00:28.019Z,100.00
2022-12-07T08:03:01.130Z,100.00
2022-12-07T08:05:33.902Z,100.00
2022-12-07T08:08:06.986Z,100.00
2022-12-07T08:10:39.884Z,100.00
2022-12-07T08:13:14.585Z,100.00
2022-12-07T08:15:49.422Z,100.00
2022-12-07T08:18:22.242Z,100.00
2022-12-07T08:21:01.695Z,100.00
2022-12-07T08:23:39.467Z,100.00
2022-12-07T08:26:14.854Z,100.00
2022-12-07T08:28:49.055Z,100.00
2022-12-07T08:31:22.210Z,100.00
2022-12-07T08:33:55.447Z,100.00
2022-12-07T08:36:28.329Z,100.00
2022-12-07T08:39:30.498Z,100.00
2022-12-07T08:41:54.098Z,100.00
2022-12-07T08:44:28.235Z,100.00
2022-12-07T08:47:04.571Z,100.00
2022-12-07T08:49:41.108Z,100.00
2022-12-07T08:52:13.966Z,100.00
2022-12-07T08:54:47.244Z,100.00
2022-12-07T08:57:20.002Z,100.00
2022-12-07T08:59:54.158Z,100.00
2022-12-07T09:02:27.493Z,100.00
2022-12-07T09:05:00.260Z,100.00
2022-12-07T09:07:35.615Z,100.00
2022-12-07T09:10:09.623Z,99.51
2022-12-07T09:12:42.622Z,99.36
2022-12-07T09:15:17.149Z,99.04
2022-12-07T09:17:50.146Z,97.87
2022-12-07T09:20:27.774Z,98.29
2022-12-07T09:23:01.795Z,99.05
2022-12-07T09:25:34.860Z,98.61
2022-12-07T09:28:07.824Z,98.88
2022-12-07T09:31:21.685Z,99.51
2022-12-07T09:33:40.529Z,99.54
2022-12-07T09:36:13.306Z,98.59
2022-12-07T09:38:46.062Z,98.96
2022-12-07T09:41:19.257Z,99.13
2022-12-07T09:43:52.686Z,99.06
2022-12-07T09:46:27.094Z,98.59
2022-12-07T09:48:59.939Z,98.36
2022-12-07T09:51:33.515Z,98.06
2022-12-07T09:54:06.374Z,96.78
2022-12-07T09:56:39.281Z,97.09
2022-12-07T09:59:18.512Z,97.14
2022-12-07T10:01:52.855Z,96.71
2022-12-07T10:04:27.598Z,95.80
2022-12-07T10:07:00.503Z,96.18
2022-12-07T10:09:36.082Z,96.52
2022-12-07T10:12:11.259Z,94.74
2022-12-07T10:15:07.303Z,94.02
2022-12-07T10:17:49.554Z,94.42
2022-12-07T10:20:27.478Z,93.36
2022-12-07T10:23:03.051Z,93.54
2022-12-07T10:25:39.112Z,92.40
2022-12-07T10:28:16.144Z,93.18
2022-12-07T10:30:53.179Z,93.04
2022-12-07T10:33:36.528Z,93.16
2022-12-07T10:36:24.713Z,93.31
2022-12-07T10:39:04.066Z,92.53
2022-12-07T10:41:36.897Z,93.43
2022-12-07T10:44:23.245Z,92.58
2022-12-07T10:47:08.067Z,92.50
2022-12-07T10:50:12.075Z,92.00
2022-12-07T10:53:10.796Z,91.95
2022-12-07T10:56:00.644Z,90.71
2022-12-07T10:58:44.054Z,89.31
2022-12-07T11:01:26.674Z,89.49
2022-12-07T11:04:16.277Z,89.20
2022-12-07T11:06:56.912Z,89.79
2022-12-07T11:12:56.429Z,89.48
2022-12-07T11:15:38.938Z,88.69
2022-12-07T11:18:19.048Z,89.32
2022-12-07T11:20:56.239Z,88.94
2022-12-07T11:23:42.151Z,87.95
2022-12-07T11:26:22.090Z,86.44
2022-12-07T11:29:11.628Z,84.78
2022-12-07T11:31:59.481Z,86.25
2022-12-07T11:34:40.511Z,85.82
2022-12-07T11:37:19.070Z,83.93
2022-12-07T11:39:57.280Z,83.57
2022-12-07T11:42:36.524Z,83.19
2022-12-07T11:45:16.947Z,83.07
2022-12-07T11:47:56.191Z,83.25
2022-12-07T11:50:35.498Z,83.15
2022-12-07T11:53:16.388Z,83.08
2022-12-07T11:55:54.985Z,84.38
2022-12-07T11:58:51.486Z,83.28
2022-12-07T12:01:48.177Z,83.40
2022-12-07T12:04:42.075Z,82.66
2022-12-07T12:10:21.020Z,82.15
2022-12-07T12:16:15.492Z,82.97
2022-12-07T12:19:12.794Z,81.50
2022-12-07T12:21:48.629Z,81.68
2022-12-07T12:24:25.458Z,82.13
2022-12-07T12:27:04.959Z,82.16
2022-12-07T12:29:41.877Z,81.92
2022-12-07T12:32:19.272Z,83.04
2022-12-07T12:35:21.577Z,82.38
2022-12-07T12:37:55.671Z,82.67
2022-12-07T12:40:50.436Z,83.57
2022-12-07T12:43:47.050Z,82.75
2022-12-07T12:46:49.969Z,82.86
2022-12-07T12:49:43.927Z,83.76
2022-12-07T12:53:10.492Z,83.76
2022-12-07T12:56:09.217Z,84.30
2022-12-07T12:58:46.626Z,82.99
2022-12-07T13:01:44.133Z,83.46
2022-12-07T13:04:55.601Z,82.86
2022-12-07T13:07:59.822Z,82.80
2022-12-07T13:10:44.518Z,85.02
2022-12-07T13:13:38.230Z,83.04
2022-12-07T13:16:40.712Z,82.69
2022-12-07T13:20:00.407Z,84.08
2022-12-07T13:23:00.126Z,83.61
2022-12-07T13:25:39.921Z,84.68
2022-12-07T13:28:18.088Z,84.03
2022-12-07T13:31:02.660Z,84.13
2022-12-07T13:33:36.995Z,85.10
2022-12-07T13:36:19.545Z,85.29
2022-12-07T13:38:58.949Z,84.74
2022-12-07T13:41:32.204Z,85.40
2022-12-07T13:44:11.330Z,85.22
2022-12-07T13:46:52.199Z,85.31
2022-12-07T13:49:27.441Z,84.53
2022-12-07T13:52:17.077Z,84.16
2022-12-07T13:54:58.548Z,84.21
2022-12-07T13:57:35.581Z,84.82
2022-12-07T14:00:17.562Z,83.69
2022-12-07T14:02:58.239Z,82.66
2022-12-07T14:05:32.819Z,83.31
2022-12-07T14:08:07.974Z,83.71
2022-12-07T14:10:44.523Z,84.64
2022-12-07T14:13:32.644Z,84.38
2022-12-07T14:16:19.134Z,84.27
2022-12-07T14:18:52.001Z,84.15
2022-12-07T14:21:27.453Z,84.23
2022-12-07T14:24:13.330Z,83.52
2022-12-07T14:26:49.182Z,83.46
2022-12-07T14:29:33.917Z,83.54
2022-12-07T14:32:21.707Z,83.50
2022-12-07T14:35:03.540Z,82.92
2022-12-07T14:37:36.451Z,83.44
2022-12-07T14:40:14.728Z,82.78
2022-12-07T14:42:53.196Z,81.62
2022-12-07T14:45:26.032Z,79.69
2022-12-07T14:53:55.038Z,82.59
2022-12-07T14:56:30.723Z,83.95
2022-12-07T14:59:05.022Z,85.36
2022-12-07T15:01:38.214Z,85.33
2022-12-07T15:04:11.159Z,85.76
2022-12-07T15:06:44.877Z,85.76
2022-12-07T15:09:17.688Z,86.87
2022-12-07T15:11:50.605Z,86.78
2022-12-07T15:14:24.754Z,87.28
2022-12-07T15:17:23.090Z,87.86
2022-12-07T15:19:50.457Z,88.52
2022-12-07T15:22:23.236Z,88.37
2022-12-07T15:24:56.211Z,89.03
2022-12-07T15:27:29.841Z,89.19
2022-12-07T15:30:05.481Z,88.82
2022-12-07T15:32:38.309Z,89.66
2022-12-07T15:35:11.631Z,90.23
2022-12-07T15:37:44.475Z,89.48
2022-12-07T15:40:17.911Z,89.78
2022-12-07T15:42:50.965Z,90.14
2022-12-07T15:45:24.377Z,90.86
2022-12-07T15:50:49.980Z,90.07
2022-12-07T15:53:22.949Z,90.53
2022-12-07T15:55:55.738Z,90.70
2022-12-07T15:58:29.044Z,90.90
2022-12-07T16:01:12.498Z,91.10
2022-12-07T16:03:46.152Z,91.45
2022-12-07T16:06:20.193Z,91.71
2022-12-07T16:08:53.084Z,91.21
2022-12-07T16:11:26.002Z,91.56
2022-12-07T16:13:58.947Z,92.39
2022-12-07T16:16:33.209Z,92.31
2022-12-07T16:19:06.482Z,92.29
2022-12-07T16:21:39.662Z,92.63
2022-12-07T16:24:13.973Z,92.73
2022-12-07T16:26:50.172Z,92.90
2022-12-07T16:29:24.251Z,92.86
2022-12-07T16:31:58.610Z,93.33
2022-12-07T16:34:31.514Z,93.28
2022-12-07T16:37:05.518Z,93.86
2022-12-07T16:39:38.862Z,93.69
2022-12-07T16:42:11.694Z,93.77
2022-12-07T16:44:44.498Z,93.78
2022-12-07T16:47:18.625Z,93.90
2022-12-07T16:49:51.841Z,93.82
2022-12-07T16:52:24.653Z,93.43
2022-12-07T16:54:57.439Z,93.59
2022-12-07T16:57:32.407Z,93.88
2022-12-07T17:00:05.666Z,93.58
2022-12-07T17:02:39.881Z,93.82
2022-12-07T17:05:12.685Z,92.86
2022-12-07T17:07:45.575Z,93.13
2022-12-07T17:10:18.861Z,92.73
2022-12-07T17:12:52.348Z,92.69
2022-12-07T17:15:24.174Z,92.50
2022-12-07T17:17:59.835Z,91.93
2022-12-07T17:20:32.612Z,92.40
2022-12-07T17:23:05.356Z,92.18
2022-12-07T17:25:38.082Z,92.23
2022-12-07T17:28:10.975Z,92.39
2022-12-07T17:30:43.700Z,92.23
2022-12-07T17:33:17.839Z,92.06
2022-12-07T17:35:50.613Z,92.44
2022-12-07T17:38:23.437Z,91.89
2022-12-07T17:40:56.278Z,92.25
2022-12-07T17:43:29.037Z,92.48
2022-12-07T17:46:08.005Z,92.52
2022-12-07T17:48:42.615Z,92.53
2022-12-07T17:51:33.015Z,92.23
2022-12-07T17:54:06.411Z,92.76
2022-12-07T17:56:39.501Z,92.39
2022-12-07T17:59:12.864Z,93.11
2022-12-07T18:01:46.721Z,93.16
2022-12-07T18:04:21.134Z,93.44
2022-12-07T18:06:53.926Z,93.66
2022-12-07T18:09:27.313Z,94.05
2022-12-07T18:12:00.347Z,94.61
2022-12-07T18:14:33.368Z,94.44
2022-12-07T18:17:06.217Z,94.42
2022-12-07T18:19:40.497Z,94.72
2022-12-07T18:22:13.270Z,94.41
2022-12-07T18:24:46.061Z,94.98
2022-12-07T18:27:18.809Z,95.53
2022-12-07T18:29:51.608Z,95.64
2022-12-07T18:32:24.664Z,95.65
2022-12-07T18:34:58.810Z,95.94
2022-12-07T18:37:33.239Z,95.54
2022-12-07T18:40:07.855Z,95.74
2022-12-07T18:42:40.729Z,95.55
2022-12-07T18:45:13.512Z,95.38
2022-12-07T18:47:46.335Z,95.32
2022-12-07T18:50:20.578Z,95.28
2022-12-07T18:52:53.401Z,94.94
2022-12-07T18:55:26.275Z,95.46
2022-12-07T18:58:00.256Z,94.99
2022-12-07T19:00:35.372Z,94.60
2022-12-07T19:03:08.136Z,94.44
2022-12-07T19:05:42.260Z,94.47
2022-12-07T19:08:15.503Z,93.70
2022-12-07T19:10:48.347Z,93.81
2022-12-07T19:13:21.179Z,93.57
2022-12-07T19:15:53.958Z,93.74
2022-12-07T19:18:26.799Z,93.85
2022-12-07T19:21:03.967Z,94.27
2022-12-07T19:23:36.755Z,94.38
2022-12-07T19:26:10.206Z,95.85
2022-12-07T19:28:43.152Z,95.42
2022-12-07T19:31:16.765Z,94.90
2022-12-07T19:33:49.727Z,95.37
2022-12-07T19:36:23.938Z,95.03
2022-12-07T19:38:56.760Z,95.41
2022-12-07T19:41:35.688Z,95.11
2022-12-07T19:44:11.897Z,94.73
2022-12-07T19:46:47.500Z,94.81
2022-12-07T19:49:21.507Z,95.17
2022-12-07T19:51:57.527Z,95.73
2022-12-07T19:54:31.907Z,95.36
2022-12-07T19:57:07.000Z,95.28
2022-12-07T19:59:40.100Z,95.63
2022-12-07T20:02:15.344Z,95.95
2022-12-07T20:04:49.312Z,95.90
2022-12-07T20:07:23.574Z,96.30
2022-12-07T20:09:56.391Z,96.07
2022-12-07T20:12:46.754Z,96.56
2022-12-07T20:15:19.576Z,96.93
2022-12-07T20:17:52.393Z,96.59
2022-12-07T20:20:25.342Z,96.79
2022-12-07T20:22:59.508Z,97.04
2022-12-07T20:25:36.086Z,97.08
2022-12-07T20:28:11.222Z,96.88
2022-12-07T20:30:47.283Z,97.11
2022-12-07T20:33:20.796Z,97.56
2022-12-07T20:35:53.950Z,97.50
2022-12-07T20:38:29.160Z,97.90
2022-12-07T20:41:04.476Z,97.95
2022-12-07T20:43:37.505Z,97.92
2022-12-07T20:46:13.082Z,98.24
2022-12-07T20:48:45.909Z,98.21
2022-12-07T20:51:19.202Z,98.39
2022-12-07T20:53:53.432Z,98.17
2022-12-07T20:56:29.017Z,98.56
2022-12-07T20:59:05.544Z,98.34
2022-12-07T21:01:38.588Z,98.60
2022-12-07T21:04:13.508Z,98.24
2022-12-07T21:06:46.419Z,98.82
2022-12-07T21:09:26.497Z,99.28
2022-12-07T21:11:59.315Z,99.06
2022-12-07T21:14:32.269Z,99.04
2022-12-07T21:17:05.063Z,99.25
2022-12-07T21:19:38.240Z,99.64
2022-12-07T21:22:11.070Z,99.41
2022-12-07T21:24:45.274Z,99.53
2022-12-07T21:27:18.441Z,99.56
2022-12-07T21:29:54.466Z,99.66
2022-12-07T21:32:27.338Z,99.18
2022-12-07T21:35:00.195Z,99.51
2022-12-07T21:37:33.160Z,99.59
2022-12-07T21:40:13.600Z,99.28
2022-12-07T21:42:50.184Z,99.17
2022-12-07T21:45:22.983Z,99.12
2022-12-07T21:47:55.787Z,98.96
2022-12-07T21:50:28.568Z,99.29
2022-12-07T21:53:01.390Z,99.33
2022-12-07T21:55:35.654Z,99.16
2022-12-07T21:58:08.476Z,99.36
2022-12-07T22:00:41.477Z,99.41
2022-12-07T22:03:14.355Z,99.15
2022-12-07T22:05:47.275Z,99.47
2022-12-07T22:08:20.411Z,99.02
2022-12-07T22:10:55.053Z,99.12
2022-12-07T22:13:48.643Z,99.16
2022-12-07T22:16:20.455Z,98.94
2022-12-07T22:18:53.396Z,98.83
2022-12-07T22:21:26.861Z,98.92
2022-12-07T22:23:59.979Z,98.95
2022-12-07T22:26:34.666Z,98.90
2022-12-07T22:29:07.730Z,98.75
2022-12-07T22:31:41.787Z,98.98
2022-12-07T22:34:16.903Z,98.95
2022-12-07T22:36:49.587Z,98.83
2022-12-07T22:39:22.423Z,99.28
2022-12-07T22:41:56.554Z,99.56
2022-12-07T22:44:29.380Z,98.82
2022-12-07T22:47:02.243Z,99.49
2022-12-07T22:49:35.301Z,99.24
2022-12-07T22:52:08.279Z,98.91
2022-12-07T22:54:41.049Z,99.15
2022-12-07T22:57:15.598Z,99.12
2022-12-07T22:59:48.393Z,99.27
2022-12-07T23:02:21.279Z,99.55
2022-12-07T23:04:54.060Z,99.12
2022-12-07T23:07:26.917Z,99.18
2022-12-07T23:09:59.945Z,99.14
2022-12-07T23:12:51.419Z,99.25
2022-12-07T23:15:24.224Z,99.33
2022-12-07T23:17:57.005Z,99.69
2022-12-07T23:20:29.962Z,99.41
2022-12-07T23:23:02.788Z,99.41
2022-12-07T23:25:35.584Z,98.77
2022-12-07T23:28:09.764Z,99.20
2022-12-07T23:30:42.601Z,99.32
2022-12-07T23:33:15.503Z,99.31
2022-12-07T23:35:48.535Z,98.99
2022-12-07T23:38:21.383Z,99.11
2022-12-07T23:40:54.222Z,99.02
2022-12-07T23:43:31.191Z,98.76
2022-12-07T23:46:09.279Z,98.96
2022-12-07T23:48:42.641Z,99.03
2022-12-07T23:51:16.539Z,98.51
2022-12-07T23:53:52.749Z,98.59
2022-12-07T23:56:27.752Z,98.55
2022-12-07T23:59:03.251Z,98.81
